Time;durP1;ratioP1;P1;durP2;ratioP2;P2;SDS_P1;SDS_P2;PMS_P1;PMS_P2;Temp;Humidity;BMP_temperature;BMP_pressure;BME280_temperature;BME280_humidity;BME280_pressure;Samples;Min_cycle;Max_cycle;Signal;HPM_P1;HPM_P2
2022/09/06 00:00:04;;;;;;;1.50;1.40;;;24.20;65.00;;;;;;4988662;28;44729;-72
2022/09/06 00:02:39;;;;;;;1.33;1.33;;;24.30;64.70;;;;;;5003099;28;43742;-72
2022/09/06 00:05:09;;;;;;;1.50;1.50;;;24.40;64.10;;;;;;5006149;28;43471;-73
2022/09/06 00:07:37;;;;;;;1.47;1.47;;;24.50;63.90;;;;;;4988283;28;46425;-73
2022/09/06 00:10:05;;;;;;;1.50;1.50;;;24.50;63.90;;;;;;5006056;28;43353;-73
2022/09/06 00:12:34;;;;;;;1.50;1.40;;;24.40;64.00;;;;;;4988264;28;43373;-71
2022/09/06 00:15:02;;;;;;;1.60;1.60;;;24.30;64.30;;;;;;5006543;28;43469;-72
2022/09/06 00:17:30;;;;;;;1.50;1.50;;;24.30;64.50;;;;;;5004061;28;45378;-71
2022/09/06 00:19:58;;;;;;;1.43;1.43;;;24.30;64.60;;;;;;4988141;28;44714;-71
2022/09/06 00:22:28;;;;;;;1.37;1.37;;;24.20;64.50;;;;;;5005560;28;44002;-70
2022/09/06 00:24:56;;;;;;;1.40;1.40;;;24.20;64.90;;;;;;5004159;28;43609;-70
2022/09/06 00:27:24;;;;;;;1.40;1.40;;;24.10;64.90;;;;;;5005553;28;43711;-72
2022/09/06 00:29:52;;;;;;;1.37;1.37;;;24.10;65.70;;;;;;5004345;28;44928;-72
2022/09/06 00:32:20;;;;;;;1.47;1.40;;;24.10;64.80;;;;;;5005713;28;43527;-71
2022/09/06 00:34:48;;;;;;;2.27;1.60;;;24.10;65.00;;;;;;5008314;28;43572;-73
2022/09/06 00:37:16;;;;;;;1.30;1.30;;;24.10;65.40;;;;;;5008801;28;43783;-71
2022/09/06 00:39:45;;;;;;;1.30;1.30;;;24.10;65.30;;;;;;5009151;28;43378;-72
2022/09/06 00:42:13;;;;;;;1.53;1.50;;;24.20;65.00;;;;;;4991333;28;43493;-72
2022/09/06 00:44:41;;;;;;;1.50;1.50;;;24.40;64.50;;;;;;5009617;28;43932;-71
2022/09/06 00:47:09;;;;;;;1.40;1.40;;;24.40;64.20;;;;;;5008465;28;43864;-71
2022/09/06 00:49:39;;;;;;;1.50;1.50;;;24.40;64.30;;;;;;5008870;28;43465;-72
2022/09/06 00:52:09;;;;;;;1.23;1.23;;;24.40;64.30;;;;;;5008279;28;43397;-73
2022/09/06 00:54:37;;;;;;;1.40;1.40;;;24.30;64.60;;;;;;5009681;28;43392;-71
2022/09/06 00:57:06;;;;;;;1.47;1.47;;;24.30;64.80;;;;;;5008745;28;43787;-72
2022/09/06 00:59:35;;;;;;;1.30;1.30;;;24.20;64.90;;;;;;5006644;28;44958;-72
2022/09/06 01:02:04;;;;;;;1.30;1.30;;;24.20;64.80;;;;;;4990787;28;44026;-73
2022/09/06 01:04:32;;;;;;;1.50;1.50;;;24.20;65.10;;;;;;5009159;28;43570;-72
2022/09/06 01:07:03;;;;;;;1.20;1.20;;;24.10;65.40;;;;;;5008631;28;43616;-72
2022/09/06 01:09:39;;;;;;;1.30;1.30;;;24.10;65.30;;;;;;5008708;28;43361;-71
2022/09/06 01:12:19;;;;;;;1.30;1.30;;;24.10;65.10;;;;;;5000331;28;43413;-72
2022/09/06 01:15:01;;;;;;;1.30;1.30;;;24.10;65.40;;;;;;5004431;28;43354;-73
2022/09/06 01:17:34;;;;;;;1.27;1.27;;;24.10;65.70;;;;;;5009897;28;43739;-71
2022/09/06 01:20:22;;;;;;;1.40;1.40;;;24.10;65.30;;;;;;4990646;28;44603;-73
2022/09/06 01:23:11;;;;;;;1.20;1.20;;;24.30;65.00;;;;;;5001012;28;43354;-71
2022/09/06 01:25:44;;;;;;;1.70;1.50;;;24.40;64.40;;;;;;5008755;28;43541;-72
2022/09/06 01:28:26;;;;;;;1.33;1.33;;;24.50;64.30;;;;;;5008463;28;43771;-72
2022/09/06 01:30:57;;;;;;;1.83;1.73;;;24.40;64.20;;;;;;4990577;28;44003;-71
2022/09/06 01:33:28;;;;;;;1.40;1.40;;;24.40;64.50;;;;;;5007906;28;43414;-72
2022/09/06 01:35:58;;;;;;;1.30;1.30;;;24.30;64.80;;;;;;5000502;28;43370;-72
2022/09/06 01:38:26;;;;;;;1.33;1.30;;;24.30;64.80;;;;;;5001708;28;43894;-72
2022/09/06 01:40:54;;;;;;;1.30;1.30;;;24.30;64.80;;;;;;5000249;28;43627;-72
2022/09/06 01:43:25;;;;;;;1.20;1.20;;;24.20;64.80;;;;;;5007508;28;43350;-72
2022/09/06 01:45:57;;;;;;;1.40;1.40;;;24.10;65.40;;;;;;5000282;28;43547;-72
2022/09/06 01:48:30;;;;;;;1.40;1.40;;;24.10;65.40;;;;;;4989512;28;46150;-71
2022/09/06 01:51:03;;;;;;;1.20;1.20;;;24.10;65.20;;;;;;4989801;28;44624;-71
2022/09/06 01:53:46;;;;;;;1.40;1.40;;;24.10;65.20;;;;;;5008006;28;43357;-72
2022/09/06 01:56:20;;;;;;;1.20;1.20;;;24.10;65.70;;;;;;5008644;28;43350;-72
2022/09/06 01:59:03;;;;;;;1.10;1.10;;;24.10;65.60;;;;;;5007902;28;44036;-71
2022/09/06 02:01:34;;;;;;;1.50;1.40;;;24.20;65.20;;;;;;5007645;28;43457;-71
2022/09/06 02:04:06;;;;;;;1.30;1.30;;;24.40;64.80;;;;;;5007618;28;43476;-74
2022/09/06 02:06:37;;;;;;;1.30;1.30;;;24.50;64.40;;;;;;5008241;28;43330;-72
2022/09/06 02:09:06;;;;;;;1.53;1.53;;;24.50;64.30;;;;;;5007757;28;43789;-73
2022/09/06 02:11:37;;;;;;;1.30;1.30;;;24.40;64.20;;;;;;5007767;28;43826;-72
2022/09/06 02:14:08;;;;;;;1.30;1.30;;;24.40;64.50;;;;;;5007372;28;43462;-72
2022/09/06 02:16:37;;;;;;;1.17;1.17;;;24.30;64.80;;;;;;5008052;28;44104;-72
2022/09/06 02:19:08;;;;;;;1.40;1.40;;;24.30;64.80;;;;;;5007331;28;43951;-73
2022/09/06 02:21:38;;;;;;;1.10;1.10;;;24.20;64.90;;;;;;5007679;28;44504;-72
2022/09/06 02:24:08;;;;;;;1.33;1.33;;;24.20;65.10;;;;;;4988754;28;43425;-74
2022/09/06 02:26:37;;;;;;;1.20;1.20;;;24.20;65.30;;;;;;4989726;28;43968;-72
2022/09/06 02:29:07;;;;;;;1.40;1.40;;;24.10;65.20;;;;;;5006920;28;43643;-73
2022/09/06 02:31:37;;;;;;;1.50;1.40;;;24.10;65.80;;;;;;5007801;28;43524;-71
2022/09/06 02:34:05;;;;;;;1.20;1.20;;;24.10;65.20;;;;;;5007164;28;43425;-74
2022/09/06 02:36:35;;;;;;;1.40;1.40;;;24.10;65.70;;;;;;4989932;28;43529;-71
2022/09/06 02:39:04;;;;;;;1.30;1.30;;;24.10;65.40;;;;;;5007157;28;43621;-72
2022/09/06 02:41:32;;;;;;;1.10;1.10;;;24.20;65.20;;;;;;5006853;28;43900;-72
2022/09/06 02:44:00;;;;;;;1.40;1.40;;;24.40;64.70;;;;;;5007567;28;43389;-72
2022/09/06 02:46:29;;;;;;;1.10;1.10;;;24.40;64.30;;;;;;5007699;28;43581;-71
2022/09/06 02:48:58;;;;;;;1.30;1.30;;;24.40;64.30;;;;;;5007289;28;43673;-72
2022/09/06 02:51:26;;;;;;;1.20;1.20;;;24.40;64.40;;;;;;5006800;28;43426;-71
2022/09/06 02:53:54;;;;;;;1.20;1.20;;;24.30;64.90;;;;;;5007051;28;43417;-71
2022/09/06 02:56:22;;;;;;;1.10;1.10;;;24.30;65.00;;;;;;5004964;28;43806;-71
2022/09/06 02:58:50;;;;;;;1.07;1.07;;;24.20;65.00;;;;;;5007181;28;43856;-71
2022/09/06 03:01:18;;;;;;;1.23;1.23;;;24.20;64.90;;;;;;5006319;28;43389;-73
2022/09/06 03:03:47;;;;;;;1.20;1.20;;;24.10;65.10;;;;;;5006918;28;43489;-72
2022/09/06 03:06:15;;;;;;;1.20;1.20;;;24.10;65.40;;;;;;4989180;28;43936;-71
2022/09/06 03:08:43;;;;;;;1.40;1.40;;;24.10;65.30;;;;;;5007575;28;43935;-72
2022/09/06 03:11:11;;;;;;;1.20;1.20;;;24.10;65.20;;;;;;5006455;28;43402;-71
2022/09/06 03:13:39;;;;;;;1.17;1.17;;;24.10;65.20;;;;;;4989116;28;43396;-70
2022/09/06 03:16:07;;;;;;;1.27;1.27;;;24.10;66.50;;;;;;5006701;28;43951;-74
2022/09/06 03:18:35;;;;;;;1.10;1.10;;;24.10;65.60;;;;;;5007040;28;43957;-72
2022/09/06 03:21:05;;;;;;;1.20;1.20;;;24.20;65.30;;;;;;5006314;28;43719;-73
2022/09/06 03:23:33;;;;;;;1.30;1.30;;;24.30;64.80;;;;;;5005348;28;44011;-73
2022/09/06 03:26:01;;;;;;;1.27;1.13;;;24.40;64.30;;;;;;5006348;28;43503;-72
2022/09/06 03:28:29;;;;;;;1.20;1.20;;;24.40;64.20;;;;;;5006123;28;43642;-71
2022/09/06 03:30:57;;;;;;;1.20;1.20;;;24.40;64.20;;;;;;5006679;28;43442;-70
2022/09/06 03:33:25;;;;;;;1.03;1.03;;;24.40;64.40;;;;;;5005997;28;43457;-72
2022/09/06 03:35:54;;;;;;;1.20;1.20;;;24.30;64.80;;;;;;5006876;28;43394;-72
2022/09/06 03:38:24;;;;;;;1.20;1.20;;;24.30;64.80;;;;;;5005672;28;43738;-72
2022/09/06 03:40:52;;;;;;;1.40;1.40;;;24.20;64.70;;;;;;5006241;28;43333;-72
2022/09/06 03:43:21;;;;;;;1.20;1.20;;;24.20;64.90;;;;;;5006144;28;43425;-71
2022/09/06 03:45:51;;;;;;;1.33;1.33;;;24.10;65.20;;;;;;4988706;28;43533;-72
2022/09/06 03:48:20;;;;;;;1.17;1.17;;;24.10;65.40;;;;;;4999690;28;43763;-73
2022/09/06 03:50:49;;;;;;;1.10;1.10;;;24.10;65.30;;;;;;4999540;28;43939;-73
2022/09/06 03:53:17;;;;;;;1.10;1.10;;;24.10;65.20;;;;;;4998364;28;43479;-74
2022/09/06 03:55:47;;;;;;;1.20;1.20;;;24.10;65.50;;;;;;5000603;28;43363;-72
2022/09/06 03:58:15;;;;;;;1.20;1.20;;;24.10;65.60;;;;;;4999713;28;43600;-72
2022/09/06 04:00:43;;;;;;;1.23;1.23;;;24.10;65.40;;;;;;5005299;28;45068;-72
2022/09/06 04:03:11;;;;;;;1.10;1.10;;;24.00;65.30;;;;;;5005841;28;43699;-71
2022/09/06 04:05:39;;;;;;;0.97;0.97;;;24.00;65.80;;;;;;5006470;28;43407;-73
2022/09/06 04:08:07;;;;;;;1.33;1.27;;;24.00;65.80;;;;;;5004741;28;44969;-72
2022/09/06 04:10:36;;;;;;;1.80;1.33;;;24.10;65.40;;;;;;5005743;28;43413;-71
2022/09/06 04:13:05;;;;;;;1.00;1.00;;;24.30;65.10;;;;;;5005896;28;43330;-73
2022/09/06 04:15:33;;;;;;;1.17;1.17;;;24.40;64.60;;;;;;5006465;28;43451;-70
2022/09/06 04:18:01;;;;;;;1.30;1.30;;;24.40;64.30;;;;;;5005809;28;43942;-72
2022/09/06 04:20:35;;;;;;;1.10;1.10;;;24.40;64.20;;;;;;5005876;28;43721;-71
2022/09/06 04:23:03;;;;;;;1.10;1.10;;;24.40;64.40;;;;;;5005999;28;44317;-74
2022/09/06 04:25:31;;;;;;;1.20;1.20;;;24.30;64.70;;;;;;5004425;28;44267;-72
2022/09/06 04:27:59;;;;;;;1.47;1.47;;;24.30;64.80;;;;;;5005687;28;45104;-71
2022/09/06 04:30:29;;;;;;;1.20;1.20;;;24.30;64.80;;;;;;5004025;28;44877;-71
2022/09/06 04:32:57;;;;;;;1.10;1.10;;;24.20;64.90;;;;;;5004230;28;43919;-72
2022/09/06 04:35:25;;;;;;;1.20;1.20;;;24.10;65.30;;;;;;5006203;28;43440;-72
2022/09/06 04:37:53;;;;;;;1.30;1.30;;;24.10;65.30;;;;;;5005739;28;43743;-72
2022/09/06 04:40:21;;;;;;;1.23;1.23;;;24.10;65.20;;;;;;5005006;28;43512;-72
2022/09/06 04:42:48;;;;;;;1.00;1.00;;;24.10;65.20;;;;;;5003650;28;43432;-71
2022/09/06 04:45:17;;;;;;;1.20;1.20;;;24.10;65.70;;;;;;5005747;28;43971;-71
2022/09/06 04:47:46;;;;;;;1.20;1.20;;;24.10;65.60;;;;;;5005923;28;43918;-71
2022/09/06 04:50:14;;;;;;;1.30;1.30;;;24.10;65.20;;;;;;5005663;28;44049;-71
2022/09/06 04:52:48;;;;;;;1.30;1.30;;;24.30;65.00;;;;;;5005640;28;43461;-74
2022/09/06 04:55:16;;;;;;;1.60;1.30;;;24.40;64.50;;;;;;5005823;28;43863;-72
2022/09/06 04:57:44;;;;;;;1.30;1.30;;;24.40;64.10;;;;;;5005527;28;43756;-71
2022/09/06 05:00:18;;;;;;;1.00;1.00;;;24.40;64.10;;;;;;5006152;28;44216;-73
2022/09/06 05:02:47;;;;;;;1.20;1.20;;;24.40;64.30;;;;;;4988364;28;43426;-71
2022/09/06 05:05:15;;;;;;;1.40;1.40;;;24.30;64.80;;;;;;4988242;28;43936;-71
2022/09/06 05:07:43;;;;;;;1.30;1.30;;;24.30;64.80;;;;;;5005988;28;43918;-71
2022/09/06 05:10:11;;;;;;;1.20;1.20;;;24.20;64.80;;;;;;5004392;28;44731;-73
2022/09/06 05:12:39;;;;;;;1.10;1.10;;;24.20;64.90;;;;;;4988017;28;43725;-71
2022/09/06 05:15:11;;;;;;;1.20;1.20;;;24.10;65.20;;;;;;4988085;28;43361;-71
2022/09/06 05:17:39;;;;;;;1.30;1.30;;;24.10;65.30;;;;;;4987893;28;45938;-71
2022/09/06 05:20:10;;;;;;;1.10;1.10;;;24.10;65.20;;;;;;5006641;28;43366;-72
2022/09/06 05:22:38;;;;;;;1.20;1.20;;;24.10;65.20;;;;;;5009662;28;44183;-71
2022/09/06 05:25:07;;;;;;;1.30;1.30;;;24.10;65.50;;;;;;4991062;28;43529;-72
2022/09/06 05:27:35;;;;;;;1.37;1.30;;;24.10;65.50;;;;;;5009157;28;43959;-72
2022/09/06 05:30:03;;;;;;;1.07;1.07;;;24.10;65.20;;;;;;5008358;28;44062;-74
2022/09/06 05:32:31;;;;;;;1.30;1.30;;;24.30;64.90;;;;;;5009274;28;43469;-71
2022/09/06 05:34:59;;;;;;;1.40;1.40;;;24.40;64.40;;;;;;4994915;28;43434;-71
2022/09/06 05:37:28;;;;;;;1.20;1.20;;;24.40;64.10;;;;;;5008536;28;43753;-71
2022/09/06 05:39:58;;;;;;;1.10;1.10;;;24.40;64.10;;;;;;5002946;28;44104;-71
2022/09/06 05:42:27;;;;;;;1.47;1.47;;;24.40;64.40;;;;;;5007211;28;43365;-72
2022/09/06 05:44:55;;;;;;;1.20;1.20;;;24.30;64.60;;;;;;5009226;28;43404;-73
2022/09/06 05:47:22;;;;;;;1.27;1.27;;;24.30;64.70;;;;;;5008468;28;43955;-71
2022/09/06 05:49:51;;;;;;;1.17;1.17;;;24.20;64.70;;;;;;5007037;28;43863;-71
2022/09/06 05:52:20;;;;;;;1.80;1.30;;;24.20;64.80;;;;;;4990703;28;43496;-72
2022/09/06 05:54:50;;;;;;;1.27;1.27;;;24.10;64.90;;;;;;5009138;28;43499;-73
2022/09/06 05:57:18;;;;;;;1.30;1.30;;;24.10;65.10;;;;;;5008291;28;43854;-75
2022/09/06 05:59:46;;;;;;;1.23;1.23;;;24.10;65.00;;;;;;5023986;28;45197;-72
2022/09/06 06:02:14;;;;;;;1.47;1.47;;;24.10;65.10;;;;;;5008679;28;43820;-71
2022/09/06 06:04:42;;;;;;;1.20;1.20;;;24.10;65.10;;;;;;5008811;28;43329;-72
2022/09/06 06:07:10;;;;;;;1.37;1.23;;;24.00;65.20;;;;;;5006344;28;46330;-71
2022/09/06 06:09:37;;;;;;;1.50;1.50;;;24.10;65.30;;;;;;5008642;28;43494;-71
2022/09/06 06:12:07;;;;;;;1.30;1.30;;;24.20;65.00;;;;;;5006680;28;43418;-74
2022/09/06 06:14:35;;;;;;;1.60;1.60;;;24.30;64.50;;;;;;5007399;28;43624;-72
2022/09/06 06:17:03;;;;;;;1.57;1.57;;;24.40;64.30;;;;;;5006693;28;45814;-72
2022/09/06 06:19:31;;;;;;;1.47;1.47;;;24.40;64.30;;;;;;5008060;28;43480;-72
2022/09/06 06:21:59;;;;;;;1.43;1.40;;;24.30;64.40;;;;;;5008248;28;43727;-72
2022/09/06 06:24:27;;;;;;;1.70;1.60;;;24.30;64.60;;;;;;5007877;28;43518;-73
2022/09/06 06:26:55;;;;;;;1.77;1.67;;;24.20;64.60;;;;;;4970319;28;45913;-72
2022/09/06 06:29:25;;;;;;;1.50;1.50;;;24.20;64.80;;;;;;4988330;28;43504;-72
2022/09/06 06:31:53;;;;;;;1.50;1.40;;;24.10;64.80;;;;;;4987843;28;43394;-72
2022/09/06 06:34:21;;;;;;;1.20;1.20;;;24.10;65.00;;;;;;4988174;28;43437;-71
2022/09/06 06:36:49;;;;;;;2.60;1.67;;;24.10;65.20;;;;;;4988409;28;43877;-72
2022/09/06 06:39:17;;;;;;;1.60;1.60;;;24.10;65.10;;;;;;4988300;28;43422;-72
2022/09/06 06:41:45;;;;;;;1.60;1.60;;;24.10;65.10;;;;;;4988749;28;43323;-71
2022/09/06 06:44:43;;;;;;;1.93;1.70;;;24.00;65.10;;;;;;4971197;28;43879;-73
2022/09/06 06:47:11;;;;;;;1.67;1.67;;;24.00;65.40;;;;;;4987532;28;44036;-72
2022/09/06 06:49:38;;;;;;;1.77;1.70;;;24.10;65.30;;;;;;4969858;28;44475;-74
2022/09/06 06:52:06;;;;;;;2.10;1.90;;;24.20;65.00;;;;;;4970304;28;43953;-73
2022/09/06 06:54:36;;;;;;;1.53;1.53;;;24.30;64.50;;;;;;4971021;28;43578;-73
2022/09/06 06:57:04;;;;;;;1.80;1.70;;;24.40;64.20;;;;;;4987886;28;44871;-73
2022/09/06 06:59:32;;;;;;;1.80;1.80;;;24.40;64.10;;;;;;4969968;28;44796;-71
2022/09/06 07:02:01;;;;;;;1.90;1.80;;;24.40;64.20;;;;;;4988260;28;43396;-73
2022/09/06 07:04:29;;;;;;;1.70;1.70;;;24.30;64.50;;;;;;4987954;28;43376;-72
2022/09/06 07:06:57;;;;;;;1.70;1.70;;;24.30;64.70;;;;;;4987705;28;43898;-72
2022/09/06 07:09:45;;;;;;;2.03;1.87;;;24.20;64.60;;;;;;4969889;28;44538;-71
2022/09/06 07:12:33;;;;;;;1.80;1.80;;;24.20;64.70;;;;;;4984337;28;43457;-72
2022/09/06 07:15:01;;;;;;;1.93;1.93;;;24.10;64.90;;;;;;4988310;28;43362;-72
2022/09/06 07:17:31;;;;;;;1.93;1.93;;;24.10;65.20;;;;;;4987384;28;43759;-72
2022/09/06 07:19:59;;;;;;;1.93;1.93;;;24.10;65.20;;;;;;4987417;28;43457;-72
2022/09/06 07:22:43;;;;;;;1.90;1.80;;;24.10;65.10;;;;;;4988112;28;43429;-71
2022/09/06 07:25:12;;;;;;;1.83;1.80;;;24.00;65.20;;;;;;4992746;28;43409;-74
2022/09/06 07:27:48;;;;;;;2.20;1.80;;;24.00;65.60;;;;;;5006971;28;43962;-73
2022/09/06 07:30:18;;;;;;;1.73;1.63;;;24.10;65.60;;;;;;5007307;28;43714;-72
2022/09/06 07:32:47;;;;;;;1.80;1.70;;;24.20;65.30;;;;;;5001158;28;43417;-72
2022/09/06 07:35:16;;;;;;;1.80;1.60;;;24.30;64.80;;;;;;5007361;28;43426;-72
2022/09/06 07:37:44;;;;;;;2.00;2.00;;;24.40;64.50;;;;;;5001332;28;43763;-72
2022/09/06 07:40:12;;;;;;;1.80;1.80;;;24.40;64.50;;;;;;5006562;28;43457;-71
2022/09/06 07:42:40;;;;;;;1.90;1.80;;;24.30;64.50;;;;;;5002640;28;43361;-73
2022/09/06 07:45:09;;;;;;;1.80;1.80;;;24.30;64.80;;;;;;5007350;28;44120;-73
2022/09/06 07:47:37;;;;;;;1.83;1.83;;;24.20;65.00;;;;;;5006845;28;43791;-73
2022/09/06 07:50:26;;;;;;;1.73;1.73;;;24.20;65.00;;;;;;5006503;28;43384;-72
2022/09/06 07:53:14;;;;;;;1.90;1.90;;;24.10;64.90;;;;;;5017932;28;43423;-72
2022/09/06 07:55:56;;;;;;;1.70;1.60;;;24.10;65.40;;;;;;5007239;28;43492;-72
2022/09/06 07:58:23;;;;;;;1.80;1.80;;;24.10;65.50;;;;;;5006168;28;43940;-72
2022/09/06 08:00:51;;;;;;;1.60;1.60;;;24.10;65.40;;;;;;5004970;28;44565;-72
2022/09/06 08:03:19;;;;;;;1.90;1.90;;;24.10;65.40;;;;;;5006809;28;43403;-72
2022/09/06 08:05:50;;;;;;;1.70;1.70;;;24.00;65.70;;;;;;5007197;28;43425;-74
2022/09/06 08:08:33;;;;;;;1.73;1.73;;;24.00;65.80;;;;;;5006830;28;44053;-71
2022/09/06 08:11:22;;;;;;;1.60;1.60;;;24.10;65.80;;;;;;5006214;28;43360;-73
2022/09/06 08:13:50;;;;;;;1.70;1.70;;;24.20;65.30;;;;;;5007274;28;43832;-73
2022/09/06 08:16:18;;;;;;;2.00;1.90;;;24.40;65.00;;;;;;5006686;28;43877;-73
2022/09/06 08:18:50;;;;;;;1.90;1.80;;;24.40;64.80;;;;;;4998728;28;46072;-72
2022/09/06 08:21:22;;;;;;;1.70;1.70;;;24.30;64.70;;;;;;5006001;28;43530;-72
2022/09/06 08:23:50;;;;;;;1.80;1.70;;;24.30;64.90;;;;;;5006828;28;43350;-71
2022/09/06 08:26:20;;;;;;;1.70;1.70;;;24.20;65.30;;;;;;4991864;28;43415;-72
2022/09/06 08:28:52;;;;;;;1.50;1.50;;;24.20;65.40;;;;;;4968819;28;45873;-71
2022/09/06 08:31:20;;;;;;;1.83;1.83;;;24.10;65.20;;;;;;4968724;28;44810;-71
2022/09/06 08:33:48;;;;;;;1.70;1.70;;;24.10;65.30;;;;;;4984950;28;43610;-71
2022/09/06 08:36:16;;;;;;;1.97;1.97;;;24.10;65.90;;;;;;4986907;28;43346;-72
2022/09/06 08:38:46;;;;;;;2.63;1.40;;;24.00;65.90;;;;;;4986706;28;43750;-72
2022/09/06 08:41:21;;;;;;;1.80;1.70;;;24.10;65.60;;;;;;4968715;28;45014;-71
2022/09/06 08:43:51;;;;;;;2.00;1.90;;;24.20;65.50;;;;;;4986545;28;43385;-71
2022/09/06 08:46:40;;;;;;;1.70;1.70;;;24.20;65.30;;;;;;4969260;28;43598;-72
2022/09/06 08:49:08;;;;;;;1.63;1.63;;;24.20;65.60;;;;;;4968317;28;45948;-72
2022/09/06 08:52:10;;;;;;;1.90;1.80;;;24.10;65.80;;;;;;4986193;28;43710;-73
2022/09/06 08:54:41;;;;;;;1.70;1.70;;;24.20;65.70;;;;;;4987245;28;43839;-73
2022/09/06 08:57:10;;;;;;;1.83;1.73;;;24.10;66.20;;;;;;4990123;28;43429;-71
2022/09/06 08:59:39;;;;;;;1.60;1.60;;;24.10;65.70;;;;;;4972092;28;45979;-71
2022/09/06 09:02:12;;;;;;;1.93;1.83;;;24.10;66.10;;;;;;4971635;28;45139;-72
2022/09/06 09:04:43;;;;;;;1.67;1.67;;;24.10;66.10;;;;;;4988273;28;43979;-72
2022/09/06 09:07:27;;;;;;;1.50;1.50;;;24.00;65.80;;;;;;4989731;28;43429;-72
2022/09/06 09:09:56;;;;;;;1.87;1.87;;;24.00;65.90;;;;;;4989737;28;43975;-72
2022/09/06 09:12:24;;;;;;;1.77;1.77;;;24.00;66.60;;;;;;4968661;28;45142;-71
2022/09/06 09:14:55;;;;;;;1.70;1.70;;;24.00;66.60;;;;;;4989720;28;43921;-71
2022/09/06 09:17:25;;;;;;;1.90;1.87;;;24.10;66.40;;;;;;4971811;28;43528;-74
2022/09/06 09:19:53;;;;;;;1.53;1.53;;;24.30;66.10;;;;;;4971501;28;45030;-73
2022/09/06 09:22:21;;;;;;;2.13;1.90;;;24.30;65.70;;;;;;4989018;28;43396;-71
2022/09/06 09:24:50;;;;;;;1.50;1.50;;;24.30;65.50;;;;;;4992190;28;43411;-72
2022/09/06 09:27:21;;;;;;;1.70;1.70;;;24.30;65.50;;;;;;5009252;28;43517;-71
2022/09/06 09:30:00;;;;;;;1.53;1.53;;;24.20;65.70;;;;;;5008983;28;43991;-73
2022/09/06 09:32:48;;;;;;;1.77;1.77;;;24.20;66.60;;;;;;5008553;28;43438;-74
2022/09/06 09:35:19;;;;;;;1.53;1.53;;;24.10;65.90;;;;;;5008915;28;43362;-73
2022/09/06 09:37:47;;;;;;;1.70;1.70;;;24.10;66.00;;;;;;5009715;28;43478;-71
2022/09/06 09:40:33;;;;;;;2.03;1.93;;;24.10;66.30;;;;;;5008333;28;43602;-71
2022/09/06 09:43:14;;;;;;;1.60;1.60;;;24.00;66.50;;;;;;5008754;28;43390;-72
2022/09/06 09:45:43;;;;;;;1.90;1.90;;;24.00;66.40;;;;;;5009596;28;43833;-74
2022/09/06 09:48:19;;;;;;;2.00;1.90;;;24.00;66.20;;;;;;4990930;28;43590;-73
2022/09/06 09:50:47;;;;;;;1.90;1.80;;;24.00;66.50;;;;;;4991151;28;45869;-71
2022/09/06 09:53:17;;;;;;;2.00;2.00;;;24.00;67.00;;;;;;5008314;28;43469;-72
2022/09/06 09:55:45;;;;;;;1.87;1.87;;;24.00;66.90;;;;;;5009155;28;43406;-73
2022/09/06 09:58:27;;;;;;;1.80;1.80;;;24.10;66.60;;;;;;4991210;28;43840;-71
2022/09/06 10:01:09;;;;;;;2.07;1.97;;;24.30;66.20;;;;;;5003998;28;43755;-72
2022/09/06 10:03:37;;;;;;;1.80;1.80;;;24.40;65.90;;;;;;4990718;28;45114;-73
2022/09/06 10:06:26;;;;;;;1.70;1.70;;;24.40;65.80;;;;;;4989167;28;43441;-73
2022/09/06 10:09:20;;;;;;;1.70;1.70;;;24.30;65.70;;;;;;5006939;28;43529;-72
2022/09/06 10:11:54;;;;;;;1.97;1.87;;;24.30;65.90;;;;;;5008705;28;43743;-73
2022/09/06 10:14:28;;;;;;;1.70;1.70;;;24.20;66.00;;;;;;5008284;28;43402;-71
2022/09/06 10:16:56;;;;;;;2.13;2.03;;;24.10;66.10;;;;;;4990333;28;43422;-72
2022/09/06 10:19:41;;;;;;;1.83;1.83;;;24.10;66.40;;;;;;5008506;28;43474;-72
2022/09/06 10:22:30;;;;;;;1.70;1.70;;;24.10;66.40;;;;;;5001989;28;44037;-71
2022/09/06 10:25:39;;;;;;;2.30;2.20;;;24.00;66.60;;;;;;5008486;28;44106;-72
2022/09/06 10:28:28;;;;;;;2.07;1.97;;;24.00;67.30;;;;;;5007999;28;43386;-72
2022/09/06 10:31:26;;;;;;;2.07;2.07;;;24.10;67.00;;;;;;5008789;28;43308;-72
2022/09/06 10:34:01;;;;;;;2.17;2.17;;;24.30;66.40;;;;;;5006491;28;44885;-72
2022/09/06 10:36:32;;;;;;;2.00;2.00;;;24.60;66.40;;;;;;5007882;28;43357;-72
2022/09/06 10:39:02;;;;;;;1.93;1.83;;;24.80;65.00;;;;;;5008231;28;43807;-71
2022/09/06 10:41:56;;;;;;;2.33;2.20;;;25.00;64.20;;;;;;5008637;28;43364;-73
2022/09/06 10:44:35;;;;;;;2.30;2.20;;;25.30;63.50;;;;;;4989440;28;45618;-72
2022/09/06 10:47:08;;;;;;;2.13;1.93;;;25.40;62.90;;;;;;5007752;28;43349;-74
2022/09/06 10:49:37;;;;;;;1.95;1.90;;;25.50;62.40;;;;;;4989845;28;43402;-72
2022/09/06 10:52:06;;;;;;;1.73;1.73;;;25.60;62.10;;;;;;4990064;28;43798;-72
2022/09/06 10:54:34;;;;;;;2.53;2.33;;;25.70;61.90;;;;;;5007602;28;43966;-71
2022/09/06 10:57:03;;;;;;;2.10;2.00;;;25.70;61.60;;;;;;5007845;28;43947;-72
2022/09/06 10:59:32;;;;;;;1.95;1.90;;;25.70;61.60;;;;;;5008151;28;43354;-72
2022/09/06 11:02:10;;;;;;;3.10;2.10;;;25.60;61.90;;;;;;5008368;28;43350;-71
2022/09/06 11:04:39;;;;;;;1.98;1.98;;;25.40;62.30;;;;;;4989541;28;45996;-71
2022/09/06 11:07:28;;;;;;;1.90;1.80;;;25.20;63.00;;;;;;5007465;28;43726;-72
2022/09/06 11:09:57;;;;;;;2.00;1.90;;;25.00;63.40;;;;;;5007638;28;43422;-73
2022/09/06 11:12:30;;;;;;;1.90;1.90;;;24.90;63.70;;;;;;5007891;28;43463;-72
2022/09/06 11:14:58;;;;;;;2.00;1.90;;;24.80;64.20;;;;;;5007835;28;44116;-71
2022/09/06 11:17:30;;;;;;;2.10;2.00;;;24.70;64.50;;;;;;5006845;28;43409;-73
2022/09/06 11:20:02;;;;;;;2.00;1.90;;;24.60;64.60;;;;;;5007519;28;43417;-72
2022/09/06 11:22:46;;;;;;;1.87;1.80;;;24.50;64.80;;;;;;4989740;28;44024;-71
2022/09/06 11:25:39;;;;;;;2.27;1.90;;;24.50;65.20;;;;;;4988820;28;46054;-72
2022/09/06 11:28:08;;;;;;;1.60;1.60;;;24.40;65.40;;;;;;5002801;28;43850;-73
2022/09/06 11:30:36;;;;;;;2.00;1.90;;;24.40;65.40;;;;;;5007183;28;43494;-72
2022/09/06 11:33:13;;;;;;;1.80;1.80;;;24.40;65.10;;;;;;5007262;28;43849;-74
2022/09/06 11:35:41;;;;;;;2.13;2.03;;;24.60;64.80;;;;;;5007263;28;43609;-70
2022/09/06 11:38:19;;;;;;;1.73;1.60;;;24.70;64.40;;;;;;5006992;28;44217;-72
2022/09/06 11:40:47;;;;;;;2.17;2.07;;;24.70;64.20;;;;;;4989404;28;43495;-72
2022/09/06 11:43:17;;;;;;;1.80;1.70;;;24.70;64.50;;;;;;5007449;28;43379;-72
2022/09/06 11:45:47;;;;;;;1.67;1.67;;;24.60;64.70;;;;;;5005951;28;45276;-72
2022/09/06 11:48:48;;;;;;;2.00;1.90;;;24.50;64.70;;;;;;4988329;28;44606;-71
2022/09/06 11:51:31;;;;;;;2.00;1.90;;;24.50;65.00;;;;;;4985676;28;43497;-71
2022/09/06 11:54:16;;;;;;;1.67;1.60;;;24.40;65.30;;;;;;4989339;28;43544;-72
2022/09/06 11:56:51;;;;;;;1.60;1.60;;;24.40;65.40;;;;;;5001454;28;43940;-72
2022/09/06 11:59:27;;;;;;;1.83;1.83;;;24.30;65.60;;;;;;4988335;28;44540;-71
2022/09/06 12:02:02;;;;;;;1.70;1.50;;;24.40;65.20;;;;;;5005417;28;43928;-72
2022/09/06 12:05:08;;;;;;;1.60;1.57;;;24.50;64.80;;;;;;5007247;28;43489;-72
2022/09/06 12:07:37;;;;;;;4.00;1.83;;;24.50;64.30;;;;;;5006540;28;43934;-72
2022/09/06 12:10:35;;;;;;;1.70;1.70;;;24.60;64.50;;;;;;5006536;28;43384;-73
2022/09/06 12:13:03;;;;;;;1.90;1.90;;;24.50;64.70;;;;;;4988639;28;43728;-72
2022/09/06 12:15:31;;;;;;;1.53;1.53;;;24.50;64.90;;;;;;5007437;28;43477;-72
2022/09/06 12:17:59;;;;;;;1.87;1.87;;;24.40;64.90;;;;;;4999956;28;43928;-71
2022/09/06 12:21:00;;;;;;;2.00;1.90;;;24.40;65.20;;;;;;5006384;28;44023;-72
2022/09/06 12:23:43;;;;;;;1.70;1.60;;;24.30;65.30;;;;;;5006854;28;43995;-71
2022/09/06 12:26:11;;;;;;;1.70;1.70;;;24.30;65.50;;;;;;5004306;28;43623;-73
2022/09/06 12:28:42;;;;;;;1.80;1.70;;;24.30;65.50;;;;;;5004656;28;46018;-72
2022/09/06 12:31:31;;;;;;;2.00;1.73;;;24.20;65.70;;;;;;4990321;28;44867;-71
2022/09/06 12:33:59;;;;;;;1.90;1.80;;;24.20;65.70;;;;;;4988631;28;43366;-72
2022/09/06 12:36:29;;;;;;;1.80;1.80;;;24.20;65.80;;;;;;4991773;28;43590;-72
2022/09/06 12:38:59;;;;;;;1.60;1.60;;;24.20;65.70;;;;;;5009871;28;43860;-73
2022/09/06 12:41:29;;;;;;;1.70;1.60;;;24.20;65.90;;;;;;5009734;28;43334;-72
2022/09/06 12:43:58;;;;;;;1.70;1.70;;;24.10;65.80;;;;;;5009647;28;43404;-72
2022/09/06 12:46:27;;;;;;;2.00;1.90;;;24.10;65.90;;;;;;5008727;28;43545;-71
2022/09/06 12:49:03;;;;;;;1.70;1.70;;;24.10;65.90;;;;;;4991412;28;44934;-72
2022/09/06 12:51:31;;;;;;;2.03;1.93;;;24.20;65.60;;;;;;5009727;28;43555;-72
2022/09/06 12:54:01;;;;;;;1.90;1.80;;;24.40;65.20;;;;;;5009653;28;43367;-72
2022/09/06 12:56:31;;;;;;;1.80;1.70;;;24.50;64.80;;;;;;5010023;28;43413;-72
2022/09/06 12:59:16;;;;;;;1.60;1.60;;;24.50;64.60;;;;;;5007825;28;46096;-71
2022/09/06 13:01:53;;;;;;;1.50;1.50;;;24.50;64.60;;;;;;5008045;28;44424;-72
2022/09/06 13:04:27;;;;;;;1.97;1.97;;;24.40;64.80;;;;;;5009767;28;43365;-72
2022/09/06 13:06:55;;;;;;;3.30;1.90;;;24.40;65.30;;;;;;5009763;28;43358;-72
2022/09/06 13:09:26;;;;;;;2.17;1.97;;;24.40;65.20;;;;;;4991196;28;46140;-71
2022/09/06 13:12:03;;;;;;;2.17;2.00;;;24.30;65.40;;;;;;4991043;28;44955;-72